sensor_id;sensor_type;location;lat;lon;timestamp;pressure;altitude;pressure_sealevel;temperature;humidity
71126;BME280;58785;55.566;38.058;2024-03-02T00:00:12;101636.75;;;3.71;72.84
71126;BME280;58785;55.566;38.058;2024-03-02T00:02:45;101637.66;;;3.70;73.01
71126;BME280;58785;55.566;38.058;2024-03-02T00:05:12;101634.16;;;3.69;73.47
71126;BME280;58785;55.566;38.058;2024-03-02T00:08:02;101629.94;;;3.65;72.86
71126;BME280;58785;55.566;38.058;2024-03-02T00:10:44;101634.69;;;3.57;73.21
71126;BME280;58785;55.566;38.058;2024-03-02T00:13:11;101635.63;;;3.56;73.16
71126;BME280;58785;55.566;38.058;2024-03-02T00:15:45;101636.47;;;3.57;73.29
71126;BME280;58785;55.566;38.058;2024-03-02T00:18:13;101629.69;;;3.51;73.13
71126;BME280;58785;55.566;38.058;2024-03-02T00:20:39;101630.72;;;3.47;73.61
71126;BME280;58785;55.566;38.058;2024-03-02T00:23:07;101629.81;;;3.48;73.69
71126;BME280;58785;55.566;38.058;2024-03-02T00:28:34;101626.00;;;3.55;73.52
71126;BME280;58785;55.566;38.058;2024-03-02T00:31:09;101626.00;;;3.55;73.16
71126;BME280;58785;55.566;38.058;2024-03-02T00:33:43;101626.06;;;3.54;73.04
71126;BME280;58785;55.566;38.058;2024-03-02T00:36:12;101622.34;;;3.58;73.30
71126;BME280;58785;55.566;38.058;2024-03-02T00:38:49;101625.91;;;3.57;73.03
71126;BME280;58785;55.566;38.058;2024-03-02T00:41:23;101626.91;;;3.54;73.44
71126;BME280;58785;55.566;38.058;2024-03-02T00:44:09;101620.84;;;3.52;73.21
71126;BME280;58785;55.566;38.058;2024-03-02T00:46:37;101620.09;;;3.49;73.35
71126;BME280;58785;55.566;38.058;2024-03-02T00:49:25;101628.63;;;3.55;73.19
71126;BME280;58785;55.566;38.058;2024-03-02T00:51:52;101623.28;;;3.57;73.18
71126;BME280;58785;55.566;38.058;2024-03-02T00:54:20;101627.69;;;3.56;72.73
71126;BME280;58785;55.566;38.058;2024-03-02T00:56:47;101623.50;;;3.52;73.23
71126;BME280;58785;55.566;38.058;2024-03-02T00:59:12;101625.31;;;3.50;73.50
71126;BME280;58785;55.566;38.058;2024-03-02T01:01:38;101617.47;;;3.49;72.91
71126;BME280;58785;55.566;38.058;2024-03-02T01:04:04;101629.72;;;3.50;72.79
71126;BME280;58785;55.566;38.058;2024-03-02T01:06:30;101634.50;;;3.41;73.03
71126;BME280;58785;55.566;38.058;2024-03-02T01:08:56;101634.81;;;3.34;73.67
71126;BME280;58785;55.566;38.058;2024-03-02T01:11:21;101636.66;;;3.32;73.58
71126;BME280;58785;55.566;38.058;2024-03-02T01:13:47;101631.41;;;3.30;73.46
71126;BME280;58785;55.566;38.058;2024-03-02T01:16:14;101634.94;;;3.31;73.40
71126;BME280;58785;55.566;38.058;2024-03-02T01:18:41;101635.81;;;3.31;73.28
71126;BME280;58785;55.566;38.058;2024-03-02T01:21:07;101634.94;;;3.31;73.71
71126;BME280;58785;55.566;38.058;2024-03-02T01:23:33;101631.50;;;3.29;73.73
71126;BME280;58785;55.566;38.058;2024-03-02T01:25:59;101635.06;;;3.28;73.66
71126;BME280;58785;55.566;38.058;2024-03-02T01:28:24;101635.13;;;3.26;73.74
71126;BME280;58785;55.566;38.058;2024-03-02T01:30:50;101643.16;;;3.23;73.39
71126;BME280;58785;55.566;38.058;2024-03-02T01:33:17;101636.28;;;3.19;74.04
71126;BME280;58785;55.566;38.058;2024-03-02T01:35:43;101645.13;;;3.18;73.73
71126;BME280;58785;55.566;38.058;2024-03-02T01:38:09;101645.19;;;3.16;73.74
71126;BME280;58785;55.566;38.058;2024-03-02T01:40:35;101647.81;;;3.16;73.97
71126;BME280;58785;55.566;38.058;2024-03-02T01:43:01;101648.81;;;3.14;73.96
71126;BME280;58785;55.566;38.058;2024-03-02T01:45:28;101649.72;;;3.13;73.96
71126;BME280;58785;55.566;38.058;2024-03-02T01:47:54;101650.59;;;3.13;73.60
71126;BME280;58785;55.566;38.058;2024-03-02T01:50:31;101656.78;;;3.12;73.77
71126;BME280;58785;55.566;38.058;2024-03-02T01:52:58;101656.78;;;3.12;73.94
71126;BME280;58785;55.566;38.058;2024-03-02T01:55:24;101654.16;;;3.12;73.53
71126;BME280;58785;55.566;38.058;2024-03-02T01:57:51;101654.94;;;3.14;73.91
71126;BME280;58785;55.566;38.058;2024-03-02T02:00:18;101653.16;;;3.15;73.63
71126;BME280;58785;55.566;38.058;2024-03-02T02:02:44;101659.47;;;3.11;73.82
71126;BME280;58785;55.566;38.058;2024-03-02T02:05:10;101658.72;;;3.07;73.59
71126;BME280;58785;55.566;38.058;2024-03-02T02:07:36;101658.66;;;3.09;73.63
71126;BME280;58785;55.566;38.058;2024-03-02T02:10:02;101666.63;;;3.07;74.06
71126;BME280;58785;55.566;38.058;2024-03-02T02:12:31;101657.22;;;3.02;73.75
71126;BME280;58785;55.566;38.058;2024-03-02T02:14:57;101653.88;;;2.97;73.96
71126;BME280;58785;55.566;38.058;2024-03-02T02:17:22;101659.00;;;3.01;74.16
71126;BME280;58785;55.566;38.058;2024-03-02T02:19:48;101674.66;;;3.04;73.76
71126;BME280;58785;55.566;38.058;2024-03-02T02:22:14;101669.31;;;3.06;73.98
71126;BME280;58785;55.566;38.058;2024-03-02T02:24:40;101671.84;;;3.09;74.00
71126;BME280;58785;55.566;38.058;2024-03-02T02:27:09;101671.78;;;3.10;73.61
71126;BME280;58785;55.566;38.058;2024-03-02T02:29:36;101674.41;;;3.10;73.62
71126;BME280;58785;55.566;38.058;2024-03-02T02:32:02;101671.72;;;3.12;73.88
71126;BME280;58785;55.566;38.058;2024-03-02T02:34:28;101666.50;;;3.10;73.35
71126;BME280;58785;55.566;38.058;2024-03-02T02:36:54;101677.78;;;3.14;73.69
71126;BME280;58785;55.566;38.058;2024-03-02T02:39:21;101676.88;;;3.15;73.64
71126;BME280;58785;55.566;38.058;2024-03-02T02:41:50;101670.91;;;3.10;73.91
71126;BME280;58785;55.566;38.058;2024-03-02T02:44:15;101676.25;;;3.08;73.68
71126;BME280;58785;55.566;38.058;2024-03-02T02:46:41;101662.16;;;3.09;73.75
71126;BME280;58785;55.566;38.058;2024-03-02T02:49:07;101659.47;;;3.11;73.61
71126;BME280;58785;55.566;38.058;2024-03-02T02:51:33;101664.56;;;3.15;73.66
71126;BME280;58785;55.566;38.058;2024-03-02T02:53:58;101660.13;;;3.16;73.71
71126;BME280;58785;55.566;38.058;2024-03-02T02:56:24;101654.94;;;3.14;73.78
71126;BME280;58785;55.566;38.058;2024-03-02T02:58:50;101669.81;;;3.15;73.71
71126;BME280;58785;55.566;38.058;2024-03-02T03:01:16;101662.84;;;3.14;73.45
71126;BME280;58785;55.566;38.058;2024-03-02T03:03:45;101655.78;;;3.15;73.41
71126;BME280;58785;55.566;38.058;2024-03-02T03:06:11;101649.03;;;3.08;73.62
71126;BME280;58785;55.566;38.058;2024-03-02T03:08:37;101662.16;;;3.09;73.70
71126;BME280;58785;55.566;38.058;2024-03-02T03:11:03;101667.19;;;3.15;73.21
71126;BME280;58785;55.566;38.058;2024-03-02T03:13:30;101655.72;;;3.16;73.74
71126;BME280;58785;55.566;38.058;2024-03-02T03:15:56;101655.84;;;3.13;73.36
71126;BME280;58785;55.566;38.058;2024-03-02T03:18:22;101660.06;;;3.17;73.16
71126;BME280;58785;55.566;38.058;2024-03-02T03:20:47;101651.44;;;3.14;73.16
71126;BME280;58785;55.566;38.058;2024-03-02T03:23:13;101664.31;;;3.22;73.09
71126;BME280;58785;55.566;38.058;2024-03-02T03:25:41;101660.69;;;3.24;73.38
71126;BME280;58785;55.566;38.058;2024-03-02T03:28:08;101660.81;;;3.21;73.37
71126;BME280;58785;55.566;38.058;2024-03-02T03:30:38;101662.56;;;3.21;73.49
71126;BME280;58785;55.566;38.058;2024-03-02T03:33:05;101671.41;;;3.20;73.41
71126;BME280;58785;55.566;38.058;2024-03-02T03:35:32;101664.41;;;3.18;73.38
71126;BME280;58785;55.566;38.058;2024-03-02T03:37:58;101663.88;;;3.10;73.12
71126;BME280;58785;55.566;38.058;2024-03-02T03:40:23;101664.69;;;3.12;73.55
71126;BME280;58785;55.566;38.058;2024-03-02T03:42:49;101657.69;;;3.11;73.34
71126;BME280;58785;55.566;38.058;2024-03-02T03:45:16;101661.97;;;3.14;73.12
71126;BME280;58785;55.566;38.058;2024-03-02T03:47:41;101660.44;;;3.08;73.44
71126;BME280;58785;55.566;38.058;2024-03-02T03:50:07;101658.94;;;3.03;72.91
71126;BME280;58785;55.566;38.058;2024-03-02T03:52:33;101661.56;;;3.03;73.58
71126;BME280;58785;55.566;38.058;2024-03-02T03:55:00;101659.78;;;3.03;73.25
71126;BME280;58785;55.566;38.058;2024-03-02T03:57:26;101664.97;;;3.05;73.28
71126;BME280;58785;55.566;38.058;2024-03-02T03:59:52;101665.84;;;3.05;73.51
71126;BME280;58785;55.566;38.058;2024-03-02T04:02:18;101668.59;;;3.02;73.18
71126;BME280;58785;55.566;38.058;2024-03-02T04:04:44;101667.84;;;2.99;73.39
71126;BME280;58785;55.566;38.058;2024-03-02T04:07:09;101669.63;;;2.98;73.13
71126;BME280;58785;55.566;38.058;2024-03-02T04:09:48;101677.53;;;2.98;73.21
71126;BME280;58785;55.566;38.058;2024-03-02T04:12:13;101671.34;;;2.99;73.45
71126;BME280;58785;55.566;38.058;2024-03-02T04:14:39;101673.13;;;2.99;72.99
71126;BME280;58785;55.566;38.058;2024-03-02T04:17:07;101672.31;;;2.97;72.98
71126;BME280;58785;55.566;38.058;2024-03-02T04:19:33;101667.25;;;2.92;72.93
71126;BME280;58785;55.566;38.058;2024-03-02T04:21:59;101668.34;;;2.86;73.25
71126;BME280;58785;55.566;38.058;2024-03-02T04:24:25;101676.38;;;2.83;73.86
71126;BME280;58785;55.566;38.058;2024-03-02T04:26:51;101668.47;;;2.83;73.40
71126;BME280;58785;55.566;38.058;2024-03-02T04:29:16;101679.94;;;2.82;73.55
71126;BME280;58785;55.566;38.058;2024-03-02T04:31:42;101669.44;;;2.81;73.60
71126;BME280;58785;55.566;38.058;2024-03-02T04:34:08;101674.94;;;2.75;73.16
71126;BME280;58785;55.566;38.058;2024-03-02T04:36:34;101673.09;;;2.77;73.60
71126;BME280;58785;55.566;38.058;2024-03-02T04:38:59;101667.91;;;2.75;73.65
71126;BME280;58785;55.566;38.058;2024-03-02T04:41:25;101670.59;;;2.74;73.35
71126;BME280;58785;55.566;38.058;2024-03-02T04:43:51;101666.91;;;2.78;73.42
71126;BME280;58785;55.566;38.058;2024-03-02T04:46:17;101673.03;;;2.78;73.26
71126;BME280;58785;55.566;38.058;2024-03-02T04:48:42;101660.00;;;2.75;73.33
71126;BME280;58785;55.566;38.058;2024-03-02T04:51:08;101662.34;;;2.83;73.51
71126;BME280;58785;55.566;38.058;2024-03-02T04:53:33;101673.44;;;2.91;73.33
71126;BME280;58785;55.566;38.058;2024-03-02T04:55:59;101673.38;;;2.93;73.27
71126;BME280;58785;55.566;38.058;2024-03-02T04:58:43;101679.78;;;2.85;73.10
71126;BME280;58785;55.566;38.058;2024-03-02T05:01:09;101681.69;;;2.82;73.07
71126;BME280;58785;55.566;38.058;2024-03-02T05:03:36;101671.44;;;2.74;72.87
71126;BME280;58785;55.566;38.058;2024-03-02T05:06:01;101684.38;;;2.80;73.29
71126;BME280;58785;55.566;38.058;2024-03-02T05:08:27;101685.13;;;2.84;73.01
71126;BME280;58785;55.566;38.058;2024-03-02T05:10:53;101682.38;;;2.87;72.60
71126;BME280;58785;55.566;38.058;2024-03-02T05:13:18;101679.59;;;2.90;72.65
71126;BME280;58785;55.566;38.058;2024-03-02T05:15:46;101687.56;;;2.88;72.72
71126;BME280;58785;55.566;38.058;2024-03-02T05:18:12;101676.88;;;2.93;72.86
71126;BME280;58785;55.566;38.058;2024-03-02T05:20:38;101682.63;;;3.03;72.62
71126;BME280;58785;55.566;38.058;2024-03-02T05:23:03;101680.50;;;3.12;72.20
71126;BME280;58785;55.566;38.058;2024-03-02T05:25:29;101682.75;;;3.22;72.17
71126;BME280;58785;55.566;38.058;2024-03-02T05:27:55;101680.72;;;3.28;72.16
71126;BME280;58785;55.566;38.058;2024-03-02T05:30:21;101678.94;;;3.29;72.24
71126;BME280;58785;55.566;38.058;2024-03-02T05:32:47;101673.56;;;3.32;71.68
71126;BME280;58785;55.566;38.058;2024-03-02T05:35:13;101674.09;;;3.40;71.54
71126;BME280;58785;55.566;38.058;2024-03-02T05:37:39;101668.63;;;3.44;71.92
71126;BME280;58785;55.566;38.058;2024-03-02T05:40:05;101665.94;;;3.46;71.47
71126;BME280;58785;55.566;38.058;2024-03-02T05:42:31;101664.88;;;3.50;71.06
71126;BME280;58785;55.566;38.058;2024-03-02T05:44:56;101675.50;;;3.69;71.40
71126;BME280;58785;55.566;38.058;2024-03-02T05:47:22;101671.56;;;3.79;70.95
71126;BME280;58785;55.566;38.058;2024-03-02T05:49:47;101662.72;;;3.80;70.77
71126;BME280;58785;55.566;38.058;2024-03-02T05:52:13;101666.75;;;3.89;70.74
71126;BME280;58785;55.566;38.058;2024-03-02T05:54:39;101678.88;;;3.93;69.95
71126;BME280;58785;55.566;38.058;2024-03-02T05:57:04;101678.16;;;3.89;70.62
71126;BME280;58785;55.566;38.058;2024-03-02T05:59:48;101676.38;;;3.90;70.29
71126;BME280;58785;55.566;38.058;2024-03-02T06:02:14;101684.81;;;3.98;70.37
71126;BME280;58785;55.566;38.058;2024-03-02T06:04:39;101688.19;;;4.01;70.08
71126;BME280;58785;55.566;38.058;2024-03-02T06:07:05;101689.63;;;4.09;70.05
71126;BME280;58785;55.566;38.058;2024-03-02T06:09:32;101693.25;;;4.06;70.15
71126;BME280;58785;55.566;38.058;2024-03-02T06:11:57;101691.56;;;4.05;70.02
71126;BME280;58785;55.566;38.058;2024-03-02T06:14:23;101700.09;;;4.10;70.01
71126;BME280;58785;55.566;38.058;2024-03-02T06:16:48;101700.63;;;4.18;69.72
71126;BME280;58785;55.566;38.058;2024-03-02T06:19:14;101696.81;;;4.25;69.75
71126;BME280;58785;55.566;38.058;2024-03-02T06:21:40;101702.88;;;4.27;69.26
71126;BME280;58785;55.566;38.058;2024-03-02T06:24:05;101694.94;;;4.27;69.03
71126;BME280;58785;55.566;38.058;2024-03-02T06:26:31;101697.78;;;4.43;68.88
71126;BME280;58785;55.566;38.058;2024-03-02T06:28:57;101709.38;;;4.39;68.61
71126;BME280;58785;55.566;38.058;2024-03-02T06:31:23;101693.44;;;4.42;68.83
71126;BME280;58785;55.566;38.058;2024-03-02T06:33:49;101703.84;;;4.45;68.75
71126;BME280;58785;55.566;38.058;2024-03-02T06:36:14;101698.34;;;4.50;68.62
71126;BME280;58785;55.566;38.058;2024-03-02T06:38:42;101705.13;;;4.55;68.21
71126;BME280;58785;55.566;38.058;2024-03-02T06:41:08;101702.28;;;4.60;68.21
71126;BME280;58785;55.566;38.058;2024-03-02T06:43:33;101691.69;;;4.60;68.13
71126;BME280;58785;55.566;38.058;2024-03-02T06:45:59;101692.81;;;4.75;67.86
71126;BME280;58785;55.566;38.058;2024-03-02T06:48:24;101688.09;;;4.81;67.70
71126;BME280;58785;55.566;38.058;2024-03-02T06:50:50;101693.94;;;4.88;67.60
71126;BME280;58785;55.566;38.058;2024-03-02T06:53:17;101692.88;;;4.92;67.69
71126;BME280;58785;55.566;38.058;2024-03-02T06:55:44;101689.84;;;5.00;67.20
71126;BME280;58785;55.566;38.058;2024-03-02T06:58:13;101696.66;;;5.05;67.21
71126;BME280;58785;55.566;38.058;2024-03-02T07:00:42;101687.91;;;5.22;67.09
71126;BME280;58785;55.566;38.058;2024-03-02T07:03:07;101686.22;;;5.38;66.90
71126;BME280;58785;55.566;38.058;2024-03-02T07:05:33;101692.47;;;5.55;66.26
71126;BME280;58785;55.566;38.058;2024-03-02T07:07:59;101696.13;;;5.69;65.97
71126;BME280;58785;55.566;38.058;2024-03-02T07:10:25;101701.44;;;5.87;65.68
71126;BME280;58785;55.566;38.058;2024-03-02T07:12:50;101696.31;;;6.01;65.17
71126;BME280;58785;55.566;38.058;2024-03-02T07:15:16;101689.53;;;6.13;65.16
71126;BME280;58785;55.566;38.058;2024-03-02T07:18:00;101686.31;;;6.23;64.98
71126;BME280;58785;55.566;38.058;2024-03-02T07:20:26;101697.59;;;6.27;64.62
71126;BME280;58785;55.566;38.058;2024-03-02T07:22:52;101694.28;;;6.23;64.50
71126;BME280;58785;55.566;38.058;2024-03-02T07:25:18;101696.84;;;6.25;64.39
71126;BME280;58785;55.566;38.058;2024-03-02T07:27:44;101701.00;;;6.29;64.53
71126;BME280;58785;55.566;38.058;2024-03-02T07:30:14;101691.13;;;6.32;63.77
71126;BME280;58785;55.566;38.058;2024-03-02T07:32:42;101699.47;;;6.58;64.07
71126;BME280;58785;55.566;38.058;2024-03-02T07:35:14;101691.56;;;6.74;63.21
71126;BME280;58785;55.566;38.058;2024-03-02T07:37:41;101693.78;;;6.97;63.30
71126;BME280;58785;55.566;38.058;2024-03-02T07:40:07;101682.56;;;7.08;62.29
71126;BME280;58785;55.566;38.058;2024-03-02T07:42:40;101679.50;;;7.15;61.87
71126;BME280;58785;55.566;38.058;2024-03-02T07:45:06;101681.97;;;7.18;62.25
71126;BME280;58785;55.566;38.058;2024-03-02T07:47:35;101681.38;;;7.13;62.17
71126;BME280;58785;55.566;38.058;2024-03-02T07:50:01;101688.81;;;7.07;62.35
71126;BME280;58785;55.566;38.058;2024-03-02T07:52:27;101691.53;;;6.89;62.31
71126;BME280;58785;55.566;38.058;2024-03-02T07:54:52;101693.16;;;6.76;62.71
71126;BME280;58785;55.566;38.058;2024-03-02T07:57:19;101684.38;;;6.76;62.54
71126;BME280;58785;55.566;38.058;2024-03-02T07:59:45;101688.63;;;6.78;62.69
71126;BME280;58785;55.566;38.058;2024-03-02T08:02:11;101682.56;;;6.76;62.89
71126;BME280;58785;55.566;38.058;2024-03-02T08:04:38;101687.97;;;6.75;62.41
71126;BME280;58785;55.566;38.058;2024-03-02T08:07:04;101689.13;;;6.69;62.28
71126;BME280;58785;55.566;38.058;2024-03-02T08:09:30;101687.84;;;6.60;62.01
71126;BME280;58785;55.566;38.058;2024-03-02T08:11:55;101683.84;;;6.69;62.38
71126;BME280;58785;55.566;38.058;2024-03-02T08:14:23;101683.50;;;6.75;62.48
71126;BME280;58785;55.566;38.058;2024-03-02T08:16:48;101677.19;;;6.78;61.20
71126;BME280;58785;55.566;38.058;2024-03-02T08:19:14;101681.03;;;6.72;61.63
71126;BME280;58785;55.566;38.058;2024-03-02T08:21:40;101682.97;;;6.69;61.37
71126;BME280;58785;55.566;38.058;2024-03-02T08:24:06;101681.28;;;6.68;61.30
71126;BME280;58785;55.566;38.058;2024-03-02T08:26:32;101673.41;;;6.66;61.72
71126;BME280;58785;55.566;38.058;2024-03-02T08:28:59;101679.94;;;6.92;60.96
71126;BME280;58785;55.566;38.058;2024-03-02T08:31:24;101678.31;;;7.05;60.09
71126;BME280;58785;55.566;38.058;2024-03-02T08:33:50;101678.44;;;7.18;60.75
71126;BME280;58785;55.566;38.058;2024-03-02T08:36:16;101679.72;;;7.11;60.18
71126;BME280;58785;55.566;38.058;2024-03-02T08:38:42;101672.06;;;7.06;60.28
71126;BME280;58785;55.566;38.058;2024-03-02T08:41:09;101676.06;;;7.13;60.39
71126;BME280;58785;55.566;38.058;2024-03-02T08:43:35;101678.25;;;7.37;60.03
71126;BME280;58785;55.566;38.058;2024-03-02T08:46:01;101673.06;;;7.65;59.34
71126;BME280;58785;55.566;38.058;2024-03-02T08:48:27;101678.81;;;7.88;58.69
71126;BME280;58785;55.566;38.058;2024-03-02T08:50:52;101679.31;;;8.08;58.56
71126;BME280;58785;55.566;38.058;2024-03-02T08:53:18;101678.06;;;8.00;58.99
71126;BME280;58785;55.566;38.058;2024-03-02T08:55:45;101680.84;;;8.13;58.29
71126;BME280;58785;55.566;38.058;2024-03-02T08:58:11;101671.59;;;8.48;57.73
71126;BME280;58785;55.566;38.058;2024-03-02T09:00:37;101674.25;;;8.62;57.07
71126;BME280;58785;55.566;38.058;2024-03-02T09:03:03;101677.38;;;8.55;57.32
71126;BME280;58785;55.566;38.058;2024-03-02T09:05:29;101676.50;;;8.40;57.71
71126;BME280;58785;55.566;38.058;2024-03-02T09:07:54;101684.72;;;8.07;57.83
71126;BME280;58785;55.566;38.058;2024-03-02T09:10:20;101679.84;;;7.85;58.65
71126;BME280;58785;55.566;38.058;2024-03-02T09:12:46;101678.78;;;7.73;58.66
71126;BME280;58785;55.566;38.058;2024-03-02T09:15:12;101682.44;;;7.71;58.51
71126;BME280;58785;55.566;38.058;2024-03-02T09:17:38;101672.41;;;7.62;58.69
71126;BME280;58785;55.566;38.058;2024-03-02T09:20:04;101678.81;;;7.58;58.98
71126;BME280;58785;55.566;38.058;2024-03-02T09:22:30;101677.09;;;7.57;58.92
71126;BME280;58785;55.566;38.058;2024-03-02T09:24:57;101675.59;;;7.53;59.19
71126;BME280;58785;55.566;38.058;2024-03-02T09:27:23;101681.25;;;7.46;59.19
71126;BME280;58785;55.566;38.058;2024-03-02T09:29:49;101685.88;;;7.43;59.18
71126;BME280;58785;55.566;38.058;2024-03-02T09:32:15;101685.09;;;7.41;59.06
71126;BME280;58785;55.566;38.058;2024-03-02T09:34:41;101675.31;;;7.41;58.78
71126;BME280;58785;55.566;38.058;2024-03-02T09:37:07;101668.69;;;7.34;58.67
71126;BME280;58785;55.566;38.058;2024-03-02T09:39:33;101669.31;;;7.24;59.07
71126;BME280;58785;55.566;38.058;2024-03-02T09:41:59;101666.56;;;7.25;58.59
71126;BME280;58785;55.566;38.058;2024-03-02T09:44:25;101672.09;;;7.20;58.65
71126;BME280;58785;55.566;38.058;2024-03-02T09:46:52;101661.09;;;7.12;58.71
71126;BME280;58785;55.566;38.058;2024-03-02T09:49:18;101656.88;;;7.24;58.71
71126;BME280;58785;55.566;38.058;2024-03-02T09:51:47;101664.75;;;7.26;58.60
71126;BME280;58785;55.566;38.058;2024-03-02T09:54:13;101662.19;;;7.24;58.87
71126;BME280;58785;55.566;38.058;2024-03-02T09:56:39;101657.63;;;7.42;57.93
71126;BME280;58785;55.566;38.058;2024-03-02T09:59:04;101662.97;;;7.56;58.23
71126;BME280;58785;55.566;38.058;2024-03-02T10:01:31;101656.06;;;7.54;58.30
71126;BME280;58785;55.566;38.058;2024-03-02T10:03:59;101652.56;;;7.37;57.89
71126;BME280;58785;55.566;38.058;2024-03-02T10:06:26;101659.44;;;7.26;58.49
71126;BME280;58785;55.566;38.058;2024-03-02T10:08:52;101667.94;;;7.16;58.78
71126;BME280;58785;55.566;38.058;2024-03-02T10:11:33;101656.56;;;7.14;58.26
71126;BME280;58785;55.566;38.058;2024-03-02T10:14:08;101654.47;;;7.19;58.11
71126;BME280;58785;55.566;38.058;2024-03-02T10:16:44;101657.50;;;7.13;58.51
71126;BME280;58785;55.566;38.058;2024-03-02T10:19:23;101661.25;;;7.09;59.00
71126;BME280;58785;55.566;38.058;2024-03-02T10:21:50;101657.50;;;7.13;58.33
71126;BME280;58785;55.566;38.058;2024-03-02T10:24:17;101657.75;;;7.25;58.37
71126;BME280;58785;55.566;38.058;2024-03-02T10:26:43;101664.56;;;7.29;58.27
71126;BME280;58785;55.566;38.058;2024-03-02T10:29:09;101658.41;;;7.28;58.57
71126;BME280;58785;55.566;38.058;2024-03-02T10:31:40;101657.75;;;7.25;58.63
71126;BME280;58785;55.566;38.058;2024-03-02T10:34:07;101667.13;;;7.30;58.02
71126;BME280;58785;55.566;38.058;2024-03-02T10:36:34;101657.16;;;7.49;58.38
71126;BME280;58785;55.566;38.058;2024-03-02T10:39:03;101658.56;;;7.71;57.75
71126;BME280;58785;55.566;38.058;2024-03-02T10:41:37;101654.25;;;7.84;57.20
71126;BME280;58785;55.566;38.058;2024-03-02T10:44:05;101655.75;;;7.74;57.27
71126;BME280;58785;55.566;38.058;2024-03-02T10:46:32;101656.28;;;7.65;57.29
71126;BME280;58785;55.566;38.058;2024-03-02T10:49:00;101657.03;;;7.67;57.34
71126;BME280;58785;55.566;38.058;2024-03-02T10:51:30;101658.97;;;7.79;57.22
71126;BME280;58785;55.566;38.058;2024-03-02T10:54:02;101653.94;;;7.89;57.12
71126;BME280;58785;55.566;38.058;2024-03-02T10:56:39;101662.00;;;7.87;56.96
71126;BME280;58785;55.566;38.058;2024-03-02T10:59:27;101658.50;;;7.87;56.94
71126;BME280;58785;55.566;38.058;2024-03-02T11:01:59;101655.28;;;7.82;57.22
71126;BME280;58785;55.566;38.058;2024-03-02T11:04:26;101650.81;;;7.82;56.92
71126;BME280;58785;55.566;38.058;2024-03-02T11:06:56;101653.84;;;7.76;57.55
71126;BME280;58785;55.566;38.058;2024-03-02T11:09:27;101652.59;;;7.67;56.88
71126;BME280;58785;55.566;38.058;2024-03-02T11:12:23;101646.09;;;7.57;57.32
71126;BME280;58785;55.566;38.058;2024-03-02T11:14:55;101650.25;;;7.47;57.34
71126;BME280;58785;55.566;38.058;2024-03-02T11:17:21;101655.66;;;7.30;57.75
71126;BME280;58785;55.566;38.058;2024-03-02T11:19:48;101654.25;;;7.24;57.75
71126;BME280;58785;55.566;38.058;2024-03-02T11:22:15;101661.25;;;7.25;58.05
71126;BME280;58785;55.566;38.058;2024-03-02T11:24:51;101649.94;;;7.37;57.72
71126;BME280;58785;55.566;38.058;2024-03-02T11:33:08;101658.50;;;7.42;57.26
71126;BME280;58785;55.566;38.058;2024-03-02T11:38:02;101658.22;;;7.31;57.39
71126;BME280;58785;55.566;38.058;2024-03-02T11:40:29;101659.88;;;7.34;57.28
71126;BME280;58785;55.566;38.058;2024-03-02T11:42:55;101657.88;;;7.37;57.40
71126;BME280;58785;55.566;38.058;2024-03-02T11:45:28;101651.38;;;7.43;57.02
71126;BME280;58785;55.566;38.058;2024-03-02T11:47:55;101653.19;;;7.42;57.35
71126;BME280;58785;55.566;38.058;2024-03-02T11:52:55;101646.38;;;7.23;57.53
71126;BME280;58785;55.566;38.058;2024-03-02T11:55:21;101652.53;;;7.23;57.51
71126;BME280;58785;55.566;38.058;2024-03-02T11:57:48;101657.13;;;7.19;57.72
71126;BME280;58785;55.566;38.058;2024-03-02T12:00:18;101665.09;;;7.19;57.60
71126;BME280;58785;55.566;38.058;2024-03-02T12:02:46;101665.63;;;7.26;57.45
71126;BME280;58785;55.566;38.058;2024-03-02T12:05:16;101661.34;;;7.24;57.16
71126;BME280;58785;55.566;38.058;2024-03-02T12:07:42;101670.31;;;7.21;57.37
71126;BME280;58785;55.566;38.058;2024-03-02T12:10:08;101676.41;;;7.23;57.88
71126;BME280;58785;55.566;38.058;2024-03-02T12:12:34;101675.88;;;7.32;57.28
71126;BME280;58785;55.566;38.058;2024-03-02T12:15:00;101672.78;;;7.40;57.69
71126;BME280;58785;55.566;38.058;2024-03-02T12:17:26;101671.44;;;7.33;57.29
71126;BME280;58785;55.566;38.058;2024-03-02T12:19:52;101677.69;;;7.32;57.65
71126;BME280;58785;55.566;38.058;2024-03-02T12:22:18;101674.59;;;7.24;57.72
71126;BME280;58785;55.566;38.058;2024-03-02T12:24:44;101681.28;;;7.15;58.16
71126;BME280;58785;55.566;38.058;2024-03-02T12:27:12;101680.09;;;7.05;58.17
71126;BME280;58785;55.566;38.058;2024-03-02T12:29:38;101673.31;;;6.99;58.18
71126;BME280;58785;55.566;38.058;2024-03-02T12:32:05;101673.59;;;6.95;58.36
71126;BME280;58785;55.566;38.058;2024-03-02T12:34:32;101680.44;;;6.83;58.20
71126;BME280;58785;55.566;38.058;2024-03-02T12:36:58;101680.00;;;6.75;58.88
71126;BME280;58785;55.566;38.058;2024-03-02T12:39:23;101677.69;;;6.69;58.34
71126;BME280;58785;55.566;38.058;2024-03-02T12:41:52;101685.13;;;6.62;58.97
71126;BME280;58785;55.566;38.058;2024-03-02T12:44:20;101682.97;;;6.53;59.32
71126;BME280;58785;55.566;38.058;2024-03-02T12:46:46;101675.34;;;6.47;59.04
71126;BME280;58785;55.566;38.058;2024-03-02T12:49:14;101677.53;;;6.39;59.54
71126;BME280;58785;55.566;38.058;2024-03-02T12:51:43;101683.50;;;6.26;59.53
71126;BME280;58785;55.566;38.058;2024-03-02T12:54:10;101677.53;;;6.23;59.97
71126;BME280;58785;55.566;38.058;2024-03-02T12:56:37;101670.81;;;6.16;59.99
71126;BME280;58785;55.566;38.058;2024-03-02T12:59:04;101669.13;;;6.15;60.34
71126;BME280;58785;55.566;38.058;2024-03-02T13:01:30;101676.91;;;6.18;60.15
71126;BME280;58785;55.566;38.058;2024-03-02T13:03:58;101675.75;;;6.06;60.69